sensor_id;sensor_type;location;lat;lon;timestamp;P1;durP1;ratioP1;P2;durP2;ratioP2
5965;SDS011;3009;43.224;27.976;2023-08-01T00:00:03;9.50;;;8.90;;
5965;SDS011;3009;43.224;27.976;2023-08-01T00:02:34;9.10;;;8.50;;
5965;SDS011;3009;43.224;27.976;2023-08-01T00:05:02;10.73;;;9.83;;
5965;SDS011;3009;43.224;27.976;2023-08-01T00:07:31;10.33;;;9.30;;
5965;SDS011;3009;43.224;27.976;2023-08-01T00:10:05;9.67;;;8.53;;
5965;SDS011;3009;43.224;27.976;2023-08-01T00:12:34;16.50;;;8.70;;
5965;SDS011;3009;43.224;27.976;2023-08-01T00:15:03;9.53;;;8.83;;
5965;SDS011;3009;43.224;27.976;2023-08-01T00:17:33;9.50;;;8.70;;
5965;SDS011;3009;43.224;27.976;2023-08-01T00:20:01;10.10;;;9.30;;
5965;SDS011;3009;43.224;27.976;2023-08-01T00:22:30;9.60;;;8.90;;
5965;SDS011;3009;43.224;27.976;2023-08-01T00:24:59;10.10;;;9.30;;
5965;SDS011;3009;43.224;27.976;2023-08-01T00:27:28;16.73;;;9.40;;
5965;SDS011;3009;43.224;27.976;2023-08-01T00:30:06;11.93;;;9.30;;
5965;SDS011;3009;43.224;27.976;2023-08-01T00:32:36;10.20;;;9.27;;
5965;SDS011;3009;43.224;27.976;2023-08-01T00:35:05;10.10;;;9.10;;
5965;SDS011;3009;43.224;27.976;2023-08-01T00:37:34;9.53;;;8.87;;
5965;SDS011;3009;43.224;27.976;2023-08-01T00:40:02;10.83;;;9.50;;
5965;SDS011;3009;43.224;27.976;2023-08-01T00:42:35;11.33;;;10.33;;
5965;SDS011;3009;43.224;27.976;2023-08-01T00:45:04;9.77;;;9.07;;
5965;SDS011;3009;43.224;27.976;2023-08-01T00:47:34;9.47;;;8.77;;
5965;SDS011;3009;43.224;27.976;2023-08-01T00:50:02;10.40;;;9.50;;
5965;SDS011;3009;43.224;27.976;2023-08-01T00:52:31;11.07;;;10.00;;
5965;SDS011;3009;43.224;27.976;2023-08-01T00:55:00;11.00;;;10.10;;
5965;SDS011;3009;43.224;27.976;2023-08-01T00:57:28;10.00;;;9.20;;
5965;SDS011;3009;43.224;27.976;2023-08-01T00:59:59;11.07;;;10.17;;
5965;SDS011;3009;43.224;27.976;2023-08-01T01:02:27;9.83;;;9.13;;
5965;SDS011;3009;43.224;27.976;2023-08-01T01:04:56;10.10;;;9.23;;
5965;SDS011;3009;43.224;27.976;2023-08-01T01:07:24;10.33;;;9.57;;
5965;SDS011;3009;43.224;27.976;2023-08-01T01:09:54;11.03;;;10.07;;
5965;SDS011;3009;43.224;27.976;2023-08-01T01:12:22;17.03;;;10.30;;
5965;SDS011;3009;43.224;27.976;2023-08-01T01:14:50;11.70;;;10.70;;
5965;SDS011;3009;43.224;27.976;2023-08-01T01:17:20;10.73;;;10.00;;
5965;SDS011;3009;43.224;27.976;2023-08-01T01:19:49;10.70;;;9.90;;
5965;SDS011;3009;43.224;27.976;2023-08-01T01:22:18;10.47;;;9.60;;
5965;SDS011;3009;43.224;27.976;2023-08-01T01:24:47;10.13;;;9.43;;
5965;SDS011;3009;43.224;27.976;2023-08-01T01:27:16;10.20;;;9.40;;
5965;SDS011;3009;43.224;27.976;2023-08-01T01:29:46;11.27;;;10.10;;
5965;SDS011;3009;43.224;27.976;2023-08-01T01:32:16;13.00;;;10.47;;
5965;SDS011;3009;43.224;27.976;2023-08-01T01:34:45;10.23;;;9.43;;
5965;SDS011;3009;43.224;27.976;2023-08-01T01:37:13;10.80;;;9.80;;
5965;SDS011;3009;43.224;27.976;2023-08-01T01:39:43;10.83;;;10.00;;
5965;SDS011;3009;43.224;27.976;2023-08-01T01:42:11;14.67;;;10.37;;
5965;SDS011;3009;43.224;27.976;2023-08-01T01:44:40;11.23;;;10.10;;
5965;SDS011;3009;43.224;27.976;2023-08-01T01:47:09;10.90;;;10.00;;
5965;SDS011;3009;43.224;27.976;2023-08-01T01:49:37;10.90;;;9.90;;
5965;SDS011;3009;43.224;27.976;2023-08-01T01:52:06;10.90;;;9.90;;
5965;SDS011;3009;43.224;27.976;2023-08-01T01:54:34;10.40;;;9.33;;
5965;SDS011;3009;43.224;27.976;2023-08-01T01:57:04;10.43;;;9.63;;
5965;SDS011;3009;43.224;27.976;2023-08-01T01:59:33;11.43;;;10.27;;
5965;SDS011;3009;43.224;27.976;2023-08-01T02:02:01;10.47;;;9.57;;
5965;SDS011;3009;43.224;27.976;2023-08-01T02:04:30;11.90;;;9.43;;
5965;SDS011;3009;43.224;27.976;2023-08-01T02:06:59;10.63;;;9.30;;
5965;SDS011;3009;43.224;27.976;2023-08-01T02:09:27;10.70;;;9.70;;
5965;SDS011;3009;43.224;27.976;2023-08-01T02:11:55;9.57;;;8.87;;
5965;SDS011;3009;43.224;27.976;2023-08-01T02:14:25;8.90;;;8.30;;
5965;SDS011;3009;43.224;27.976;2023-08-01T02:16:53;8.50;;;7.90;;
5965;SDS011;3009;43.224;27.976;2023-08-01T02:19:22;9.60;;;8.90;;
5965;SDS011;3009;43.224;27.976;2023-08-01T02:21:50;11.50;;;8.70;;
5965;SDS011;3009;43.224;27.976;2023-08-01T02:24:18;9.43;;;8.73;;
5965;SDS011;3009;43.224;27.976;2023-08-01T02:26:47;8.50;;;8.00;;
5965;SDS011;3009;43.224;27.976;2023-08-01T02:29:16;10.43;;;9.63;;
5965;SDS011;3009;43.224;27.976;2023-08-01T02:31:46;9.60;;;8.83;;
5965;SDS011;3009;43.224;27.976;2023-08-01T02:34:15;9.70;;;8.90;;
5965;SDS011;3009;43.224;27.976;2023-08-01T02:36:43;9.50;;;8.70;;
5965;SDS011;3009;43.224;27.976;2023-08-01T02:39:11;9.93;;;9.13;;
5965;SDS011;3009;43.224;27.976;2023-08-01T02:41:40;8.70;;;8.00;;
5965;SDS011;3009;43.224;27.976;2023-08-01T02:44:08;11.17;;;8.13;;
5965;SDS011;3009;43.224;27.976;2023-08-01T02:46:37;17.43;;;9.30;;
5965;SDS011;3009;43.224;27.976;2023-08-01T02:49:07;9.60;;;8.90;;
5965;SDS011;3009;43.224;27.976;2023-08-01T02:51:35;13.60;;;8.80;;
5965;SDS011;3009;43.224;27.976;2023-08-01T02:54:03;10.30;;;8.30;;
5965;SDS011;3009;43.224;27.976;2023-08-01T02:56:32;8.97;;;8.27;;
5965;SDS011;3009;43.224;27.976;2023-08-01T02:59:00;9.93;;;8.07;;
5965;SDS011;3009;43.224;27.976;2023-08-01T03:01:29;8.80;;;8.00;;
5965;SDS011;3009;43.224;27.976;2023-08-01T03:03:57;10.73;;;9.80;;
5965;SDS011;3009;43.224;27.976;2023-08-01T03:06:27;9.40;;;8.70;;
5965;SDS011;3009;43.224;27.976;2023-08-01T03:08:57;10.87;;;8.50;;
5965;SDS011;3009;43.224;27.976;2023-08-01T03:11:25;8.83;;;8.20;;
5965;SDS011;3009;43.224;27.976;2023-08-01T03:13:54;8.10;;;7.60;;
5965;SDS011;3009;43.224;27.976;2023-08-01T03:16:22;8.47;;;7.87;;
5965;SDS011;3009;43.224;27.976;2023-08-01T03:18:51;9.40;;;8.37;;
5965;SDS011;3009;43.224;27.976;2023-08-01T03:21:20;8.20;;;7.63;;
5965;SDS011;3009;43.224;27.976;2023-08-01T03:23:49;9.63;;;8.67;;
5965;SDS011;3009;43.224;27.976;2023-08-01T03:26:18;8.00;;;7.40;;
5965;SDS011;3009;43.224;27.976;2023-08-01T03:28:46;8.37;;;7.67;;
5965;SDS011;3009;43.224;27.976;2023-08-01T03:31:15;7.50;;;6.93;;
5965;SDS011;3009;43.224;27.976;2023-08-01T03:33:43;7.93;;;7.43;;
5965;SDS011;3009;43.224;27.976;2023-08-01T03:36:11;8.80;;;7.97;;
5965;SDS011;3009;43.224;27.976;2023-08-01T03:38:40;6.63;;;6.23;;
5965;SDS011;3009;43.224;27.976;2023-08-01T03:41:10;7.80;;;7.20;;
5965;SDS011;3009;43.224;27.976;2023-08-01T03:43:38;7.47;;;6.93;;
5965;SDS011;3009;43.224;27.976;2023-08-01T03:46:07;7.00;;;6.50;;
5965;SDS011;3009;43.224;27.976;2023-08-01T03:48:36;7.17;;;6.67;;
5965;SDS011;3009;43.224;27.976;2023-08-01T03:51:04;7.40;;;6.90;;
5965;SDS011;3009;43.224;27.976;2023-08-01T03:53:33;7.10;;;6.63;;
5965;SDS011;3009;43.224;27.976;2023-08-01T03:56:01;7.47;;;6.97;;
5965;SDS011;3009;43.224;27.976;2023-08-01T03:58:31;7.53;;;6.57;;
5965;SDS011;3009;43.224;27.976;2023-08-01T04:01:00;7.33;;;6.70;;
5965;SDS011;3009;43.224;27.976;2023-08-01T04:03:28;22.03;;;7.50;;
5965;SDS011;3009;43.224;27.976;2023-08-01T04:05:56;13.47;;;7.30;;
5965;SDS011;3009;43.224;27.976;2023-08-01T04:08:25;6.73;;;6.27;;
5965;SDS011;3009;43.224;27.976;2023-08-01T04:10:54;6.70;;;6.30;;
5965;SDS011;3009;43.224;27.976;2023-08-01T04:13:23;6.57;;;6.07;;
5965;SDS011;3009;43.224;27.976;2023-08-01T04:15:52;6.23;;;5.83;;
5965;SDS011;3009;43.224;27.976;2023-08-01T04:18:21;6.97;;;6.57;;
5965;SDS011;3009;43.224;27.976;2023-08-01T04:20:50;6.70;;;6.30;;
5965;SDS011;3009;43.224;27.976;2023-08-01T04:23:19;8.00;;;6.83;;
5965;SDS011;3009;43.224;27.976;2023-08-01T04:25:47;6.87;;;6.47;;
5965;SDS011;3009;43.224;27.976;2023-08-01T04:28:16;9.33;;;6.77;;
5965;SDS011;3009;43.224;27.976;2023-08-01T04:30:48;6.97;;;6.20;;
5965;SDS011;3009;43.224;27.976;2023-08-01T04:33:18;6.70;;;6.30;;
5965;SDS011;3009;43.224;27.976;2023-08-01T04:35:47;6.73;;;6.33;;
5965;SDS011;3009;43.224;27.976;2023-08-01T04:38:15;7.10;;;6.70;;
5965;SDS011;3009;43.224;27.976;2023-08-01T04:40:44;7.10;;;6.40;;
5965;SDS011;3009;43.224;27.976;2023-08-01T04:43:13;6.87;;;6.37;;
5965;SDS011;3009;43.224;27.976;2023-08-01T04:45:41;6.40;;;5.90;;
5965;SDS011;3009;43.224;27.976;2023-08-01T04:48:10;6.47;;;5.87;;
5965;SDS011;3009;43.224;27.976;2023-08-01T04:50:39;8.33;;;6.60;;
5965;SDS011;3009;43.224;27.976;2023-08-01T04:53:08;6.20;;;5.70;;
5965;SDS011;3009;43.224;27.976;2023-08-01T04:55:37;6.17;;;5.87;;
5965;SDS011;3009;43.224;27.976;2023-08-01T04:58:06;6.70;;;6.10;;
5965;SDS011;3009;43.224;27.976;2023-08-01T05:00:37;6.80;;;6.23;;
5965;SDS011;3009;43.224;27.976;2023-08-01T05:03:05;5.97;;;5.77;;
5965;SDS011;3009;43.224;27.976;2023-08-01T05:05:34;6.33;;;6.00;;
5965;SDS011;3009;43.224;27.976;2023-08-01T05:08:04;6.30;;;5.90;;
5965;SDS011;3009;43.224;27.976;2023-08-01T05:10:32;6.43;;;6.03;;
5965;SDS011;3009;43.224;27.976;2023-08-01T05:13:01;7.07;;;6.30;;
5965;SDS011;3009;43.224;27.976;2023-08-01T05:15:30;6.03;;;5.73;;
5965;SDS011;3009;43.224;27.976;2023-08-01T05:17:58;5.63;;;5.43;;
5965;SDS011;3009;43.224;27.976;2023-08-01T05:20:26;5.40;;;5.20;;
5965;SDS011;3009;43.224;27.976;2023-08-01T05:22:57;6.23;;;5.83;;
5965;SDS011;3009;43.224;27.976;2023-08-01T05:25:27;7.63;;;5.85;;
5965;SDS011;3009;43.224;27.976;2023-08-01T05:27:55;4.82;;;4.63;;
5965;SDS011;3009;43.224;27.976;2023-08-01T05:30:25;5.45;;;5.05;;
5965;SDS011;3009;43.224;27.976;2023-08-01T05:32:53;5.40;;;5.10;;
5965;SDS011;3009;43.224;27.976;2023-08-01T05:35:21;5.18;;;4.97;;
5965;SDS011;3009;43.224;27.976;2023-08-01T05:37:50;5.05;;;4.78;;
5965;SDS011;3009;43.224;27.976;2023-08-01T05:40:19;7.40;;;5.90;;
5965;SDS011;3009;43.224;27.976;2023-08-01T05:42:49;6.57;;;6.15;;
5965;SDS011;3009;43.224;27.976;2023-08-01T05:45:17;6.50;;;6.00;;
5965;SDS011;3009;43.224;27.976;2023-08-01T05:47:46;5.47;;;5.18;;
5965;SDS011;3009;43.224;27.976;2023-08-01T05:50:14;7.10;;;6.60;;
5965;SDS011;3009;43.224;27.976;2023-08-01T05:52:42;7.03;;;6.53;;
5965;SDS011;3009;43.224;27.976;2023-08-01T05:55:11;6.80;;;6.32;;
5965;SDS011;3009;43.224;27.976;2023-08-01T05:57:39;9.88;;;7.95;;
5965;SDS011;3009;43.224;27.976;2023-08-01T06:00:10;10.73;;;8.98;;
5965;SDS011;3009;43.224;27.976;2023-08-01T06:02:39;11.13;;;10.10;;
5965;SDS011;3009;43.224;27.976;2023-08-01T06:05:08;10.05;;;9.07;;
5965;SDS011;3009;43.224;27.976;2023-08-01T06:07:37;13.75;;;12.27;;
5965;SDS011;3009;43.224;27.976;2023-08-01T06:10:05;15.02;;;12.20;;
5965;SDS011;3009;43.224;27.976;2023-08-01T06:12:34;12.35;;;11.20;;
5965;SDS011;3009;43.224;27.976;2023-08-01T06:15:03;16.52;;;10.77;;
5965;SDS011;3009;43.224;27.976;2023-08-01T06:17:34;9.55;;;7.22;;
5965;SDS011;3009;43.224;27.976;2023-08-01T06:20:03;11.10;;;9.85;;
5965;SDS011;3009;43.224;27.976;2023-08-01T06:22:32;10.32;;;9.30;;
5965;SDS011;3009;43.224;27.976;2023-08-01T06:25:00;14.55;;;10.30;;
5965;SDS011;3009;43.224;27.976;2023-08-01T06:27:29;14.13;;;12.75;;
5965;SDS011;3009;43.224;27.976;2023-08-01T06:29:57;11.80;;;10.45;;
5965;SDS011;3009;43.224;27.976;2023-08-01T06:32:25;17.45;;;10.50;;
5965;SDS011;3009;43.224;27.976;2023-08-01T06:34:55;12.88;;;11.63;;
5965;SDS011;3009;43.224;27.976;2023-08-01T06:37:24;13.43;;;12.10;;
5965;SDS011;3009;43.224;27.976;2023-08-01T06:39:52;14.88;;;11.88;;
5965;SDS011;3009;43.224;27.976;2023-08-01T06:42:21;12.95;;;11.50;;
5965;SDS011;3009;43.224;27.976;2023-08-01T06:44:50;13.27;;;12.00;;
5965;SDS011;3009;43.224;27.976;2023-08-01T06:47:18;16.48;;;10.93;;
5965;SDS011;3009;43.224;27.976;2023-08-01T06:49:47;9.88;;;8.98;;
5965;SDS011;3009;43.224;27.976;2023-08-01T06:52:16;10.82;;;9.57;;
5965;SDS011;3009;43.224;27.976;2023-08-01T06:54:45;9.80;;;8.90;;
5965;SDS011;3009;43.224;27.976;2023-08-01T06:57:13;10.77;;;9.85;;
5965;SDS011;3009;43.224;27.976;2023-08-01T06:59:42;9.95;;;9.15;;
5965;SDS011;3009;43.224;27.976;2023-08-01T07:02:10;14.70;;;10.43;;
5965;SDS011;3009;43.224;27.976;2023-08-01T07:04:39;9.68;;;8.57;;
5965;SDS011;3009;43.224;27.976;2023-08-01T07:07:07;18.83;;;11.27;;
5965;SDS011;3009;43.224;27.976;2023-08-01T07:09:38;15.63;;;9.63;;
5965;SDS011;3009;43.224;27.976;2023-08-01T07:12:06;11.85;;;8.68;;
5965;SDS011;3009;43.224;27.976;2023-08-01T07:14:35;8.50;;;7.85;;
5965;SDS011;3009;43.224;27.976;2023-08-01T07:17:04;9.52;;;8.82;;
5965;SDS011;3009;43.224;27.976;2023-08-01T07:19:32;9.55;;;8.95;;
5965;SDS011;3009;43.224;27.976;2023-08-01T07:22:01;10.35;;;9.30;;
5965;SDS011;3009;43.224;27.976;2023-08-01T07:24:29;20.85;;;9.07;;
5965;SDS011;3009;43.224;27.976;2023-08-01T07:26:59;18.13;;;9.85;;
5965;SDS011;3009;43.224;27.976;2023-08-01T07:29:28;10.07;;;9.38;;
5965;SDS011;3009;43.224;27.976;2023-08-01T07:31:56;9.50;;;8.80;;
5965;SDS011;3009;43.224;27.976;2023-08-01T07:34:25;9.80;;;8.73;;
5965;SDS011;3009;43.224;27.976;2023-08-01T07:36:53;10.15;;;9.25;;
5965;SDS011;3009;43.224;27.976;2023-08-01T07:39:21;9.60;;;8.75;;
5965;SDS011;3009;43.224;27.976;2023-08-01T07:41:50;9.43;;;8.60;;
5965;SDS011;3009;43.224;27.976;2023-08-01T07:44:19;9.43;;;8.57;;
5965;SDS011;3009;43.224;27.976;2023-08-01T07:46:48;10.77;;;8.10;;
5965;SDS011;3009;43.224;27.976;2023-08-01T07:49:16;9.13;;;8.52;;
5965;SDS011;3009;43.224;27.976;2023-08-01T07:51:45;10.27;;;7.75;;
5965;SDS011;3009;43.224;27.976;2023-08-01T07:54:13;9.18;;;8.38;;
5965;SDS011;3009;43.224;27.976;2023-08-01T07:56:41;9.13;;;8.32;;
5965;SDS011;3009;43.224;27.976;2023-08-01T07:59:13;9.20;;;8.45;;
5965;SDS011;3009;43.224;27.976;2023-08-01T08:01:43;9.95;;;9.25;;
5965;SDS011;3009;43.224;27.976;2023-08-01T08:04:12;8.90;;;8.27;;
5965;SDS011;3009;43.224;27.976;2023-08-01T08:06:40;9.17;;;8.50;;
5965;SDS011;3009;43.224;27.976;2023-08-01T08:09:09;9.93;;;9.10;;
5965;SDS011;3009;43.224;27.976;2023-08-01T08:11:37;8.50;;;7.90;;
5965;SDS011;3009;43.224;27.976;2023-08-01T08:14:06;8.37;;;7.77;;
5965;SDS011;3009;43.224;27.976;2023-08-01T08:16:34;8.40;;;7.80;;
5965;SDS011;3009;43.224;27.976;2023-08-01T08:19:04;8.47;;;7.80;;
5965;SDS011;3009;43.224;27.976;2023-08-01T08:21:32;8.57;;;7.87;;
5965;SDS011;3009;43.224;27.976;2023-08-01T08:24:01;7.50;;;7.10;;
5965;SDS011;3009;43.224;27.976;2023-08-01T08:26:30;7.73;;;7.23;;
5965;SDS011;3009;43.224;27.976;2023-08-01T08:29:00;8.57;;;8.00;;
5965;SDS011;3009;43.224;27.976;2023-08-01T08:31:29;7.80;;;7.20;;
5965;SDS011;3009;43.224;27.976;2023-08-01T08:33:57;7.97;;;7.47;;
5965;SDS011;3009;43.224;27.976;2023-08-01T08:36:27;7.97;;;7.37;;
5965;SDS011;3009;43.224;27.976;2023-08-01T08:38:56;8.83;;;8.13;;
5965;SDS011;3009;43.224;27.976;2023-08-01T08:41:26;8.70;;;8.20;;
5965;SDS011;3009;43.224;27.976;2023-08-01T08:43:56;7.93;;;7.43;;
5965;SDS011;3009;43.224;27.976;2023-08-01T08:46:25;7.97;;;7.00;;
5965;SDS011;3009;43.224;27.976;2023-08-01T08:48:57;7.90;;;7.30;;
5965;SDS011;3009;43.224;27.976;2023-08-01T08:51:29;8.00;;;7.50;;
5965;SDS011;3009;43.224;27.976;2023-08-01T08:53:59;7.23;;;6.77;;
5965;SDS011;3009;43.224;27.976;2023-08-01T08:56:29;8.10;;;7.40;;
5965;SDS011;3009;43.224;27.976;2023-08-01T08:58:58;7.70;;;7.30;;
5965;SDS011;3009;43.224;27.976;2023-08-01T09:01:27;7.97;;;7.47;;
5965;SDS011;3009;43.224;27.976;2023-08-01T09:03:57;7.23;;;6.73;;
5965;SDS011;3009;43.224;27.976;2023-08-01T09:06:28;8.17;;;7.67;;
5965;SDS011;3009;43.224;27.976;2023-08-01T09:09:01;6.60;;;6.30;;
5965;SDS011;3009;43.224;27.976;2023-08-01T09:11:37;7.20;;;6.80;;
5965;SDS011;3009;43.224;27.976;2023-08-01T09:14:09;7.70;;;7.20;;
5965;SDS011;3009;43.224;27.976;2023-08-01T09:16:39;8.93;;;8.20;;
5965;SDS011;3009;43.224;27.976;2023-08-01T09:19:08;7.33;;;6.83;;
5965;SDS011;3009;43.224;27.976;2023-08-01T09:21:41;9.13;;;7.40;;
5965;SDS011;3009;43.224;27.976;2023-08-01T09:24:09;7.23;;;6.70;;
5965;SDS011;3009;43.224;27.976;2023-08-01T09:26:39;7.57;;;7.07;;
5965;SDS011;3009;43.224;27.976;2023-08-01T09:29:08;7.60;;;7.00;;
5965;SDS011;3009;43.224;27.976;2023-08-01T09:31:37;7.07;;;6.67;;
5965;SDS011;3009;43.224;27.976;2023-08-01T09:34:17;8.40;;;7.70;;
5965;SDS011;3009;43.224;27.976;2023-08-01T09:36:48;8.30;;;7.70;;
5965;SDS011;3009;43.224;27.976;2023-08-01T09:39:18;7.67;;;7.27;;
5965;SDS011;3009;43.224;27.976;2023-08-01T09:41:54;7.23;;;6.80;;
5965;SDS011;3009;43.224;27.976;2023-08-01T09:44:23;7.53;;;7.13;;
5965;SDS011;3009;43.224;27.976;2023-08-01T09:46:56;8.20;;;7.50;;
5965;SDS011;3009;43.224;27.976;2023-08-01T09:49:26;7.70;;;7.10;;
5965;SDS011;3009;43.224;27.976;2023-08-01T09:51:57;7.17;;;6.63;;
5965;SDS011;3009;43.224;27.976;2023-08-01T09:54:26;7.40;;;7.00;;
5965;SDS011;3009;43.224;27.976;2023-08-01T09:56:54;7.40;;;6.97;;
5965;SDS011;3009;43.224;27.976;2023-08-01T09:59:24;7.47;;;6.80;;
5965;SDS011;3009;43.224;27.976;2023-08-01T10:01:54;7.23;;;6.73;;
5965;SDS011;3009;43.224;27.976;2023-08-01T10:04:26;7.40;;;6.90;;
5965;SDS011;3009;43.224;27.976;2023-08-01T10:06:58;7.50;;;6.87;;
5965;SDS011;3009;43.224;27.976;2023-08-01T10:09:31;7.10;;;6.70;;
5965;SDS011;3009;43.224;27.976;2023-08-01T10:12:03;8.07;;;7.30;;
5965;SDS011;3009;43.224;27.976;2023-08-01T10:14:33;7.90;;;7.30;;
5965;SDS011;3009;43.224;27.976;2023-08-01T10:17:03;8.70;;;8.13;;
5965;SDS011;3009;43.224;27.976;2023-08-01T10:19:32;7.60;;;7.20;;
5965;SDS011;3009;43.224;27.976;2023-08-01T10:22:02;7.27;;;6.87;;
5965;SDS011;3009;43.224;27.976;2023-08-01T10:24:32;7.40;;;7.00;;
5965;SDS011;3009;43.224;27.976;2023-08-01T10:27:10;7.27;;;6.80;;
5965;SDS011;3009;43.224;27.976;2023-08-01T10:29:40;7.63;;;7.03;;
5965;SDS011;3009;43.224;27.976;2023-08-01T10:32:09;7.87;;;7.37;;
5965;SDS011;3009;43.224;27.976;2023-08-01T10:34:38;8.00;;;7.20;;
5965;SDS011;3009;43.224;27.976;2023-08-01T10:37:08;7.23;;;6.73;;
5965;SDS011;3009;43.224;27.976;2023-08-01T10:39:36;25.73;;;6.80;;
5965;SDS011;3009;43.224;27.976;2023-08-01T10:42:05;7.20;;;6.60;;
5965;SDS011;3009;43.224;27.976;2023-08-01T10:44:44;7.70;;;7.20;;
5965;SDS011;3009;43.224;27.976;2023-08-01T10:47:13;8.43;;;7.10;;
5965;SDS011;3009;43.224;27.976;2023-08-01T10:49:42;7.70;;;6.97;;
5965;SDS011;3009;43.224;27.976;2023-08-01T10:52:19;7.73;;;7.13;;
5965;SDS011;3009;43.224;27.976;2023-08-01T10:54:55;7.70;;;6.93;;
5965;SDS011;3009;43.224;27.976;2023-08-01T10:57:26;8.00;;;7.40;;
5965;SDS011;3009;43.224;27.976;2023-08-01T10:59:56;9.50;;;7.90;;
5965;SDS011;3009;43.224;27.976;2023-08-01T11:02:25;12.30;;;11.10;;
5965;SDS011;3009;43.224;27.976;2023-08-01T11:04:56;14.87;;;10.80;;
5965;SDS011;3009;43.224;27.976;2023-08-01T11:07:26;7.90;;;7.40;;
5965;SDS011;3009;43.224;27.976;2023-08-01T11:10:02;14.13;;;10.00;;
5965;SDS011;3009;43.224;27.976;2023-08-01T11:12:33;8.73;;;8.03;;
5965;SDS011;3009;43.224;27.976;2023-08-01T11:15:04;7.93;;;7.30;;
5965;SDS011;3009;43.224;27.976;2023-08-01T11:17:35;7.20;;;6.80;;
5965;SDS011;3009;43.224;27.976;2023-08-01T11:20:04;6.80;;;6.40;;
5965;SDS011;3009;43.224;27.976;2023-08-01T11:22:36;7.13;;;6.73;;
5965;SDS011;3009;43.224;27.976;2023-08-01T11:25:05;8.10;;;7.60;;
5965;SDS011;3009;43.224;27.976;2023-08-01T11:27:34;8.00;;;7.50;;
5965;SDS011;3009;43.224;27.976;2023-08-01T11:30:03;7.93;;;7.33;;
5965;SDS011;3009;43.224;27.976;2023-08-01T11:32:33;8.00;;;7.37;;
5965;SDS011;3009;43.224;27.976;2023-08-01T11:35:03;7.70;;;7.20;;
5965;SDS011;3009;43.224;27.976;2023-08-01T11:37:32;7.40;;;7.00;;
5965;SDS011;3009;43.224;27.976;2023-08-01T11:40:03;7.07;;;6.67;;
5965;SDS011;3009;43.224;27.976;2023-08-01T11:42:32;7.17;;;6.77;;
5965;SDS011;3009;43.224;27.976;2023-08-01T11:45:07;9.47;;;7.67;;
5965;SDS011;3009;43.224;27.976;2023-08-01T11:47:36;7.70;;;7.20;;
5965;SDS011;3009;43.224;27.976;2023-08-01T11:50:06;8.10;;;7.60;;
5965;SDS011;3009;43.224;27.976;2023-08-01T11:52:35;12.93;;;7.97;;
5965;SDS011;3009;43.224;27.976;2023-08-01T11:55:05;7.47;;;6.97;;
5965;SDS011;3009;43.224;27.976;2023-08-01T11:57:34;7.27;;;6.77;;
5965;SDS011;3009;43.224;27.976;2023-08-01T12:00:03;7.50;;;7.10;;
5965;SDS011;3009;43.224;27.976;2023-08-01T12:02:33;7.27;;;6.67;;
5965;SDS011;3009;43.224;27.976;2023-08-01T12:05:01;8.20;;;7.43;;
5965;SDS011;3009;43.224;27.976;2023-08-01T12:07:30;8.00;;;7.47;;
5965;SDS011;3009;43.224;27.976;2023-08-01T12:09:58;7.30;;;6.90;;
5965;SDS011;3009;43.224;27.976;2023-08-01T12:12:29;7.60;;;7.17;;
5965;SDS011;3009;43.224;27.976;2023-08-01T12:14:58;7.80;;;7.13;;
5965;SDS011;3009;43.224;27.976;2023-08-01T12:17:26;6.97;;;6.57;;
5965;SDS011;3009;43.224;27.976;2023-08-01T12:19:56;7.17;;;6.67;;
5965;SDS011;3009;43.224;27.976;2023-08-01T12:22:25;7.20;;;6.80;;
5965;SDS011;3009;43.224;27.976;2023-08-01T12:24:53;7.07;;;6.50;;
5965;SDS011;3009;43.224;27.976;2023-08-01T12:27:22;7.03;;;6.53;;
5965;SDS011;3009;43.224;27.976;2023-08-01T12:29:54;6.53;;;6.13;;
5965;SDS011;3009;43.224;27.976;2023-08-01T12:32:22;7.73;;;7.23;;
5965;SDS011;3009;43.224;27.976;2023-08-01T12:34:51;8.30;;;7.23;;
5965;SDS011;3009;43.224;27.976;2023-08-01T12:37:19;6.97;;;6.57;;
5965;SDS011;3009;43.224;27.976;2023-08-01T12:39:48;7.10;;;6.70;;
5965;SDS011;3009;43.224;27.976;2023-08-01T12:42:16;7.20;;;6.80;;
5965;SDS011;3009;43.224;27.976;2023-08-01T12:44:44;7.37;;;6.97;;
5965;SDS011;3009;43.224;27.976;2023-08-01T12:47:14;12.13;;;6.90;;
5965;SDS011;3009;43.224;27.976;2023-08-01T12:49:43;9.03;;;6.40;;
5965;SDS011;3009;43.224;27.976;2023-08-01T12:52:12;8.77;;;6.47;;
5965;SDS011;3009;43.224;27.976;2023-08-01T12:54:50;7.03;;;6.63;;
5965;SDS011;3009;43.224;27.976;2023-08-01T12:57:19;7.40;;;6.90;;
5965;SDS011;3009;43.224;27.976;2023-08-01T12:59:47;6.80;;;6.40;;
5965;SDS011;3009;43.224;27.976;2023-08-01T13:02:17;6.60;;;6.20;;
5965;SDS011;3009;43.224;27.976;2023-08-01T13:04:46;7.00;;;6.40;;
5965;SDS011;3009;43.224;27.976;2023-08-01T13:07:14;7.03;;;5.90;;
5965;SDS011;3009;43.224;27.976;2023-08-01T13:09:43;6.20;;;5.80;;
5965;SDS011;3009;43.224;27.976;2023-08-01T13:12:11;7.00;;;6.40;;
5965;SDS011;3009;43.224;27.976;2023-08-01T13:14:40;6.83;;;6.33;;
5965;SDS011;3009;43.224;27.976;2023-08-01T13:17:08;7.40;;;6.90;;
5965;SDS011;3009;43.224;27.976;2023-08-01T13:19:38;7.40;;;6.80;;
5965;SDS011;3009;43.224;27.976;2023-08-01T13:22:06;7.70;;;7.10;;
5965;SDS011;3009;43.224;27.976;2023-08-01T13:24:35;7.07;;;6.67;;
5965;SDS011;3009;43.224;27.976;2023-08-01T13:27:03;6.80;;;6.40;;
5965;SDS011;3009;43.224;27.976;2023-08-01T13:29:32;6.97;;;6.63;;
5965;SDS011;3009;43.224;27.976;2023-08-01T13:32:01;6.80;;;6.30;;
5965;SDS011;3009;43.224;27.976;2023-08-01T13:34:29;6.40;;;6.00;;
5965;SDS011;3009;43.224;27.976;2023-08-01T13:36:59;6.40;;;6.10;;
5965;SDS011;3009;43.224;27.976;2023-08-01T13:39:27;6.60;;;6.20;;
5965;SDS011;3009;43.224;27.976;2023-08-01T13:41:56;6.30;;;6.00;;
5965;SDS011;3009;43.224;27.976;2023-08-01T13:44:24;6.40;;;6.00;;
5965;SDS011;3009;43.224;27.976;2023-08-01T13:46:53;6.67;;;6.33;;
5965;SDS011;3009;43.224;27.976;2023-08-01T13:49:21;6.37;;;6.03;;
5965;SDS011;3009;43.224;27.976;2023-08-01T13:51:50;7.00;;;6.50;;
5965;SDS011;3009;43.224;27.976;2023-08-01T13:54:19;5.90;;;5.60;;
5965;SDS011;3009;43.224;27.976;2023-08-01T13:56:48;5.90;;;5.50;;
5965;SDS011;3009;43.224;27.976;2023-08-01T13:59:17;6.57;;;6.17;;
5965;SDS011;3009;43.224;27.976;2023-08-01T14:01:46;6.70;;;5.83;;
5965;SDS011;3009;43.224;27.976;2023-08-01T14:04:14;6.97;;;6.57;;
5965;SDS011;3009;43.224;27.976;2023-08-01T14:06:43;5.50;;;5.30;;
5965;SDS011;3009;43.224;27.976;2023-08-01T14:09:11;6.53;;;6.13;;
5965;SDS011;3009;43.224;27.976;2023-08-01T14:11:41;7.00;;;6.60;;
5965;SDS011;3009;43.224;27.976;2023-08-01T14:14:10;6.20;;;5.80;;
5965;SDS011;3009;43.224;27.976;2023-08-01T14:16:38;7.03;;;6.53;;
5965;SDS011;3009;43.224;27.976;2023-08-01T14:19:07;6.23;;;5.83;;
5965;SDS011;3009;43.224;27.976;2023-08-01T14:21:35;7.17;;;6.77;;
5965;SDS011;3009;43.224;27.976;2023-08-01T14:24:04;6.93;;;6.43;;
5965;SDS011;3009;43.224;27.976;2023-08-01T14:26:32;6.23;;;5.77;;
5965;SDS011;3009;43.224;27.976;2023-08-01T14:29:03;6.50;;;6.20;;
5965;SDS011;3009;43.224;27.976;2023-08-01T14:31:32;7.27;;;6.80;;
5965;SDS011;3009;43.224;27.976;2023-08-01T14:34:00;6.77;;;6.43;;
5965;SDS011;3009;43.224;27.976;2023-08-01T14:36:29;6.40;;;6.10;;
5965;SDS011;3009;43.224;27.976;2023-08-01T14:38:57;6.93;;;6.30;;
5965;SDS011;3009;43.224;27.976;2023-08-01T14:41:42;6.97;;;6.47;;
5965;SDS011;3009;43.224;27.976;2023-08-01T14:44:14;6.57;;;6.23;;
5965;SDS011;3009;43.224;27.976;2023-08-01T14:46:43;6.90;;;6.50;;
5965;SDS011;3009;43.224;27.976;2023-08-01T14:49:11;6.73;;;6.40;;
5965;SDS011;3009;43.224;27.976;2023-08-01T14:51:40;6.60;;;6.30;;
5965;SDS011;3009;43.224;27.976;2023-08-01T14:54:08;6.83;;;6.43;;
5965;SDS011;3009;43.224;27.976;2023-08-01T14:56:39;7.20;;;6.70;;
5965;SDS011;3009;43.224;27.976;2023-08-01T14:59:08;7.20;;;6.60;;
5965;SDS011;3009;43.224;27.976;2023-08-01T15:01:37;6.97;;;6.37;;
5965;SDS011;3009;43.224;27.976;2023-08-01T15:04:06;6.83;;;6.43;;
5965;SDS011;3009;43.224;27.976;2023-08-01T15:06:34;6.40;;;6.00;;
5965;SDS011;3009;43.224;27.976;2023-08-01T15:09:03;7.07;;;6.53;;